createdAt,value
2018-08-19T00:00:14.257Z,0
2018-08-19T00:01:14.783Z,0
2018-08-19T00:02:14.233Z,0
2018-08-19T00:03:14.685Z,0
2018-08-19T00:04:13.941Z,0
2018-08-19T00:05:14.469Z,0
2018-08-19T00:06:14.188Z,0
2018-08-19T00:07:14.456Z,0
2018-08-19T00:08:14.431Z,0
2018-08-19T00:09:13.877Z,0
2018-08-19T00:10:14.148Z,0
2018-08-19T00:11:14.446Z,0
2018-08-19T00:12:14.121Z,0
2018-08-19T00:13:13.837Z,0
2018-08-19T00:14:14.359Z,0
2018-08-19T00:15:14.083Z,0
2018-08-19T00:16:14.066Z,0
2018-08-19T00:17:14.630Z,0
2018-08-19T00:18:14.305Z,0
2018-08-19T00:19:14.034Z,0
2018-08-19T00:20:14.549Z,0
2018-08-19T00:21:14.023Z,0
2018-08-19T00:22:14.004Z,0
2018-08-19T00:23:14.248Z,0
2018-08-19T00:24:14.255Z,0
2018-08-19T00:25:14.227Z,0
2018-08-19T00:26:13.952Z,0
2018-08-19T00:27:14.508Z,0
2018-08-19T00:28:14.456Z,0
2018-08-19T00:29:14.190Z,0
2018-08-19T00:30:14.165Z,0
2018-08-19T00:31:13.685Z,0
2018-08-19T00:32:14.176Z,0
2018-08-19T00:33:13.608Z,0
2018-08-19T00:34:14.126Z,0
2018-08-19T00:35:14.155Z,0
2018-08-19T00:36:13.830Z,0
2018-08-19T00:37:13.831Z,0
2018-08-19T00:38:13.803Z,0
2018-08-19T00:39:13.530Z,0
2018-08-19T00:40:14.055Z,0
2018-08-19T00:41:13.506Z,0
2018-08-19T00:42:13.784Z,0
2018-08-19T00:43:14.008Z,0
2018-08-19T00:44:13.748Z,0
2018-08-19T00:45:13.476Z,0
2018-08-19T00:46:13.972Z,0
2018-08-19T00:47:13.703Z,0
2018-08-19T00:48:14.421Z,0
2018-08-19T00:49:13.945Z,0
2018-08-19T00:50:13.927Z,0
2018-08-19T00:51:13.644Z,0
2018-08-19T00:52:13.641Z,0
2018-08-19T00:53:13.642Z,0
2018-08-19T00:54:13.616Z,0
2018-08-19T00:55:13.689Z,0
2018-08-19T00:56:13.356Z,0
2018-08-19T00:57:13.322Z,0
2018-08-19T00:58:13.558Z,0
2018-08-19T00:59:13.549Z,0
2018-08-19T01:00:13.604Z,0
2018-08-19T01:01:13.263Z,0
2018-08-19T01:02:13.520Z,0
2018-08-19T01:03:13.517Z,0
2018-08-19T01:04:13.766Z,0
2018-08-19T01:05:14.019Z,0
2018-08-19T01:06:13.208Z,0
2018-08-19T01:07:13.750Z,0
2018-08-19T01:08:13.976Z,0
2018-08-19T01:09:13.441Z,0
2018-08-19T01:10:13.164Z,0
2018-08-19T01:11:13.137Z,0
2018-08-19T01:12:13.936Z,0
2018-08-19T01:13:13.665Z,0
2018-08-19T01:14:13.367Z,0
2018-08-19T01:15:13.349Z,0
2018-08-19T01:16:13.349Z,0
2018-08-19T01:17:12.803Z,0
2018-08-19T01:18:12.786Z,0
2018-08-19T01:19:13.040Z,0
2018-08-19T01:20:13.574Z,0
2018-08-19T01:21:13.818Z,0
2018-08-19T01:22:13.538Z,0
2018-08-19T01:23:13.263Z,0
2018-08-19T01:24:12.994Z,0
2018-08-19T01:25:13.240Z,0
2018-08-19T01:26:13.230Z,0
2018-08-19T01:27:13.213Z,0
2018-08-19T01:28:13.209Z,0
2018-08-19T01:29:13.243Z,0
2018-08-19T01:30:13.182Z,0
2018-08-19T01:31:13.183Z,0
2018-08-19T01:32:13.674Z,0
2018-08-19T01:33:13.404Z,0
2018-08-19T01:34:13.124Z,0
2018-08-19T01:35:13.377Z,0
2018-08-19T01:36:13.366Z,0
2018-08-19T01:37:13.090Z,0
2018-08-19T01:38:13.076Z,0
2018-08-19T01:39:13.599Z,0
2018-08-19T01:40:13.323Z,0
2018-08-19T01:41:13.569Z,0
2018-08-19T01:42:12.771Z,0
2018-08-19T01:43:12.751Z,0
2018-08-19T01:44:13.002Z,0
2018-08-19T01:45:13.312Z,0
2018-08-19T01:46:12.981Z,0
2018-08-19T01:47:13.513Z,0
2018-08-19T01:48:12.956Z,0
2018-08-19T01:49:12.941Z,0
2018-08-19T01:50:13.197Z,0
2018-08-19T01:51:13.204Z,0
2018-08-19T01:52:13.431Z,0
2018-08-19T01:53:12.893Z,0
2018-08-19T01:54:13.434Z,0
2018-08-19T01:55:13.139Z,0
2018-08-19T01:56:13.135Z,0
2018-08-19T01:57:12.842Z,0
2018-08-19T01:58:13.375Z,0
2018-08-19T01:59:13.083Z,0
2018-08-19T02:00:13.067Z,0
2018-08-19T02:01:12.522Z,0
2018-08-19T02:02:13.042Z,0
2018-08-19T02:03:13.029Z,0
2018-08-19T02:04:13.027Z,0
2018-08-19T02:05:13.301Z,0
2018-08-19T02:06:12.733Z,0
2018-08-19T02:07:12.716Z,0
2018-08-19T02:08:12.707Z,0
2018-08-19T02:09:12.684Z,0
2018-08-19T02:10:12.675Z,0
2018-08-19T02:11:12.137Z,0
2018-08-19T02:12:12.918Z,0
2018-08-19T02:13:12.639Z,0
2018-08-19T02:14:12.629Z,0
2018-08-19T02:15:12.364Z,0
2018-08-19T02:16:12.606Z,0
2018-08-19T02:17:12.879Z,0
2018-08-19T02:18:12.317Z,0
2018-08-19T02:19:12.560Z,0
2018-08-19T02:20:12.815Z,0
2018-08-19T02:21:12.280Z,0
2018-08-19T02:22:12.788Z,0
2018-08-19T02:23:12.779Z,0
2018-08-19T02:24:12.501Z,0
2018-08-19T02:25:12.271Z,0
2018-08-19T02:26:12.744Z,0
2018-08-19T02:27:13.005Z,0
2018-08-19T02:28:12.184Z,0
2018-08-19T02:29:12.448Z,0
2018-08-19T02:30:12.433Z,0
2018-08-19T02:31:12.157Z,0
2018-08-19T02:32:12.407Z,0
2018-08-19T02:33:12.939Z,0
2018-08-19T02:34:12.118Z,0
2018-08-19T02:35:12.368Z,0
2018-08-19T02:36:12.363Z,0
2018-08-19T02:37:12.614Z,0
2018-08-19T02:38:12.344Z,0
2018-08-19T02:39:12.577Z,0
2018-08-19T02:40:12.305Z,0
2018-08-19T02:41:12.290Z,0
2018-08-19T02:42:12.283Z,0
2018-08-19T02:43:12.532Z,0
2018-08-19T02:44:12.248Z,0
2018-08-19T02:45:11.988Z,0
2018-08-19T02:46:12.499Z,0
2018-08-19T02:47:12.748Z,0
2018-08-19T02:48:12.929Z,0
2018-08-19T02:49:12.472Z,0
2018-08-19T02:50:12.458Z,0
2018-08-19T02:51:12.168Z,0
2018-08-19T02:52:12.149Z,0
2018-08-19T02:53:12.423Z,0
2018-08-19T02:54:12.406Z,0
2018-08-19T02:55:12.386Z,0
2018-08-19T02:56:12.112Z,0
2018-08-19T02:57:12.292Z,0
2018-08-19T02:58:12.074Z,0
2018-08-19T02:59:12.064Z,0
2018-08-19T03:00:12.066Z,0
2018-08-19T03:01:12.070Z,0
2018-08-19T03:02:11.499Z,0
2018-08-19T03:03:12.036Z,0
2018-08-19T03:04:12.014Z,0
2018-08-19T03:05:11.993Z,0
2018-08-19T03:06:12.236Z,0
2018-08-19T03:07:11.957Z,0
2018-08-19T03:08:11.969Z,0
2018-08-19T03:09:12.220Z,0
2018-08-19T03:10:11.663Z,0
2018-08-19T03:11:11.923Z,0
2018-08-19T03:12:11.627Z,0
2018-08-19T03:13:12.210Z,0
2018-08-19T03:14:11.869Z,0
2018-08-19T03:15:12.713Z,0
2018-08-19T03:16:11.579Z,0
2018-08-19T03:17:12.104Z,0
2018-08-19T03:18:11.817Z,0
2018-08-19T03:19:12.072Z,0
2018-08-19T03:20:11.795Z,0
2018-08-19T03:21:12.058Z,0
2018-08-19T03:22:12.310Z,0
2018-08-19T03:23:12.303Z,0
2018-08-19T03:24:12.016Z,0
2018-08-19T03:25:11.734Z,0
2018-08-19T03:26:11.731Z,0
2018-08-19T03:27:11.444Z,0
2018-08-19T03:28:11.696Z,0
2018-08-19T03:29:12.211Z,0
2018-08-19T03:30:12.246Z,0
2018-08-19T03:31:11.666Z,0
2018-08-19T03:32:12.183Z,0
2018-08-19T03:33:12.167Z,0
2018-08-19T03:34:11.614Z,0
2018-08-19T03:35:11.614Z,0
2018-08-19T03:36:11.330Z,0
2018-08-19T03:37:12.104Z,0
2018-08-19T03:38:12.251Z,0
2018-08-19T03:39:11.325Z,0
2018-08-19T03:40:12.088Z,0
2018-08-19T03:41:11.536Z,0
2018-08-19T03:42:11.254Z,0
2018-08-19T03:43:11.498Z,0
2018-08-19T03:44:11.758Z,0
2018-08-19T03:45:11.217Z,0
2018-08-19T03:46:11.460Z,0
2018-08-19T03:47:11.188Z,0
2018-08-19T03:48:11.965Z,0
2018-08-19T03:49:11.426Z,0
2018-08-19T03:50:11.149Z,0
2018-08-19T03:51:11.657Z,0
2018-08-19T03:52:11.649Z,0
2018-08-19T03:53:11.380Z,0
2018-08-19T03:54:11.362Z,0
2018-08-19T03:55:11.366Z,0
2018-08-19T03:56:11.074Z,0
2018-08-19T03:57:11.328Z,0
2018-08-19T03:58:11.901Z,0
2018-08-19T03:59:11.571Z,0
2018-08-19T04:00:11.012Z,0
2018-08-19T04:01:11.279Z,0
2018-08-19T04:02:11.524Z,0
2018-08-19T04:03:11.260Z,0
2018-08-19T04:04:11.225Z,0
2018-08-19T04:05:11.476Z,0
2018-08-19T04:06:10.936Z,0
2018-08-19T04:07:11.460Z,0
2018-08-19T04:08:11.176Z,0
2018-08-19T04:09:11.164Z,0
2018-08-19T04:10:11.414Z,0
2018-08-19T04:11:10.874Z,0
2018-08-19T04:12:11.121Z,0
2018-08-19T04:13:11.105Z,0
2018-08-19T04:14:10.834Z,0
2018-08-19T04:15:11.625Z,0
2018-08-19T04:16:11.357Z,0
2018-08-19T04:17:11.365Z,0
2018-08-19T04:18:10.782Z,0
2018-08-19T04:19:11.295Z,0
2018-08-19T04:20:11.299Z,0
2018-08-19T04:21:10.746Z,0
2018-08-19T04:22:10.997Z,0
2018-08-19T04:23:11.529Z,0
2018-08-19T04:24:10.447Z,0
2018-08-19T04:25:10.953Z,0
2018-08-19T04:26:11.471Z,0
2018-08-19T04:27:11.200Z,5
2018-08-19T04:28:10.649Z,5
2018-08-19T04:29:10.959Z,5
2018-08-19T04:30:10.892Z,5
2018-08-19T04:31:11.139Z,5
2018-08-19T04:32:10.873Z,5
2018-08-19T04:33:10.602Z,5
2018-08-19T04:34:11.378Z,5
2018-08-19T04:35:10.840Z,5
2018-08-19T04:36:11.375Z,5
2018-08-19T04:37:10.532Z,10
2018-08-19T04:38:10.528Z,10
2018-08-19T04:39:10.241Z,10
2018-08-19T04:40:10.758Z,10
2018-08-19T04:41:10.741Z,10
2018-08-19T04:42:10.569Z,10
2018-08-19T04:43:10.203Z,10
2018-08-19T04:44:10.980Z,10
2018-08-19T04:45:10.161Z,10
2018-08-19T04:46:10.677Z,15
2018-08-19T04:47:10.667Z,15
2018-08-19T04:48:10.906Z,15
2018-08-19T04:49:10.917Z,15
2018-08-19T04:50:10.634Z,15
2018-08-19T04:51:10.626Z,15
2018-08-19T04:52:10.861Z,15
2018-08-19T04:53:10.626Z,15
2018-08-19T04:54:10.862Z,20
2018-08-19T04:55:10.850Z,20
2018-08-19T04:56:10.819Z,20
2018-08-19T04:57:10.544Z,20
2018-08-19T04:58:10.533Z,20
2018-08-19T04:59:10.803Z,20
2018-08-19T05:00:10.510Z,20
2018-08-19T05:01:10.756Z,20
2018-08-19T05:02:11.620Z,20
2018-08-19T05:03:10.730Z,25
2018-08-19T05:04:11.000Z,25
2018-08-19T05:05:10.445Z,25
2018-08-19T05:06:10.162Z,25
2018-08-19T05:07:10.674Z,25
2018-08-19T05:08:11.401Z,25
2018-08-19T05:09:10.909Z,25
2018-08-19T05:10:10.904Z,25
2018-08-19T05:11:10.616Z,30
2018-08-19T05:12:10.343Z,30
2018-08-19T05:13:10.326Z,30
2018-08-19T05:14:10.068Z,30
2018-08-19T05:15:10.322Z,30
2018-08-19T05:16:10.562Z,30
2018-08-19T05:17:10.545Z,30
2018-08-19T05:18:10.802Z,30
2018-08-19T05:19:10.263Z,30
2018-08-19T05:20:10.500Z,35
2018-08-19T05:21:10.238Z,35
2018-08-19T05:22:10.232Z,35
2018-08-19T05:23:10.738Z,35
2018-08-19T05:24:10.202Z,35
2018-08-19T05:25:10.450Z,35
2018-08-19T05:26:09.896Z,35
2018-08-19T05:27:10.427Z,35
2018-08-19T05:28:10.415Z,35
2018-08-19T05:29:10.407Z,40
2018-08-19T05:30:10.380Z,40
2018-08-19T05:31:10.098Z,40
2018-08-19T05:32:10.355Z,40
2018-08-19T05:33:10.077Z,40
2018-08-19T05:34:10.325Z,40
2018-08-19T05:35:09.781Z,45
2018-08-19T05:36:10.057Z,45
2018-08-19T05:37:10.307Z,45
2018-08-19T05:38:10.400Z,45
2018-08-19T05:39:10.535Z,45
2018-08-19T05:40:10.251Z,45
2018-08-19T05:41:10.511Z,45
2018-08-19T05:42:09.960Z,45
2018-08-19T05:43:09.952Z,45
2018-08-19T05:44:09.930Z,50
2018-08-19T05:45:09.933Z,50
2018-08-19T05:46:09.394Z,50
2018-08-19T05:47:10.543Z,50
2018-08-19T05:48:10.159Z,50
2018-08-19T05:49:09.874Z,50
2018-08-19T05:50:10.127Z,50
2018-08-19T05:51:09.602Z,50
2018-08-19T05:52:10.116Z,50
2018-08-19T05:53:10.357Z,50
2018-08-19T05:54:10.059Z,55
2018-08-19T05:55:10.119Z,55
2018-08-19T05:56:09.801Z,55
2018-08-19T05:57:09.773Z,55
2018-08-19T05:58:09.765Z,55
2018-08-19T05:59:10.025Z,55
2018-08-19T06:00:10.013Z,55
2018-08-19T06:01:10.024Z,55
2018-08-19T06:02:09.715Z,60
2018-08-19T06:03:09.707Z,60
2018-08-19T06:04:09.766Z,60
2018-08-19T06:05:09.963Z,60
2018-08-19T06:06:09.403Z,60
2018-08-19T06:07:09.691Z,60
2018-08-19T06:08:09.941Z,60
2018-08-19T06:09:09.907Z,60
2018-08-19T06:10:09.895Z,60
2018-08-19T06:11:10.141Z,60
2018-08-19T06:12:09.594Z,60
2018-08-19T06:13:09.857Z,60
2018-08-19T06:14:09.856Z,65
2018-08-19T06:15:09.563Z,65
2018-08-19T06:16:09.549Z,65
2018-08-19T06:17:09.806Z,65
2018-08-19T06:18:10.057Z,65
2018-08-19T06:19:09.507Z,65
2018-08-19T06:20:09.768Z,65
2018-08-19T06:21:09.798Z,65
2018-08-19T06:22:09.730Z,65
2018-08-19T06:23:09.467Z,65
2018-08-19T06:24:09.474Z,65
2018-08-19T06:25:09.731Z,70
2018-08-19T06:26:09.974Z,70
2018-08-19T06:27:09.420Z,70
2018-08-19T06:28:09.936Z,70
2018-08-19T06:29:09.410Z,70
2018-08-19T06:30:09.652Z,70
2018-08-19T06:31:09.567Z,75
2018-08-19T06:32:09.633Z,75
2018-08-19T06:33:09.405Z,75
2018-08-19T06:34:09.081Z,75
2018-08-19T06:35:09.929Z,75
2018-08-19T06:36:09.320Z,75
2018-08-19T06:37:09.601Z,75
2018-08-19T06:38:09.362Z,75
2018-08-19T06:39:09.548Z,75
2018-08-19T06:40:09.279Z,75
2018-08-19T06:41:09.559Z,75
2018-08-19T06:42:09.509Z,75
2018-08-19T06:43:09.762Z,75
2018-08-19T06:44:08.957Z,80
2018-08-19T06:45:08.966Z,80
2018-08-19T06:46:09.465Z,80
2018-08-19T06:47:09.196Z,80
2018-08-19T06:48:09.654Z,80
2018-08-19T06:49:09.426Z,80
2018-08-19T06:50:09.684Z,80
2018-08-19T06:51:09.836Z,80
2018-08-19T06:52:08.929Z,80
2018-08-19T06:53:09.685Z,80
2018-08-19T06:54:09.376Z,80
2018-08-19T06:55:09.092Z,80
2018-08-19T06:56:08.824Z,85
2018-08-19T06:57:08.810Z,85
2018-08-19T06:58:09.327Z,85
2018-08-19T06:59:09.054Z,85
2018-08-19T07:00:09.038Z,85
2018-08-19T07:01:08.770Z,85
2018-08-19T07:02:09.548Z,85
2018-08-19T07:03:09.375Z,85
2018-08-19T07:04:09.392Z,90
2018-08-19T07:05:09.255Z,90
2018-08-19T07:06:09.295Z,90
2018-08-19T07:07:09.018Z,90
2018-08-19T07:08:08.703Z,90
2018-08-19T07:09:09.476Z,90
2018-08-19T07:10:08.928Z,90
2018-08-19T07:11:08.942Z,90
2018-08-19T07:12:09.173Z,90
2018-08-19T07:13:08.640Z,95
2018-08-19T07:14:09.158Z,95
2018-08-19T07:15:08.606Z,95
2018-08-19T07:16:08.863Z,95
2018-08-19T07:17:09.379Z,95
2018-08-19T07:18:09.115Z,95
2018-08-19T07:19:08.572Z,95
2018-08-19T07:20:08.291Z,95
2018-08-19T07:21:08.325Z,95
2018-08-19T07:22:09.058Z,95
2018-08-19T07:23:08.793Z,95
2018-08-19T07:24:08.248Z,100
2018-08-19T07:25:08.510Z,95
2018-08-19T07:26:09.078Z,95
2018-08-19T07:27:08.742Z,100
2018-08-19T07:28:08.746Z,100
2018-08-19T07:29:08.987Z,100
2018-08-19T07:30:08.985Z,100
2018-08-19T07:31:08.712Z,100
2018-08-19T07:32:08.432Z,100
2018-08-19T07:33:08.940Z,100
2018-08-19T07:34:08.674Z,100
2018-08-19T07:35:08.928Z,100
2018-08-19T07:36:08.438Z,100
2018-08-19T07:37:09.434Z,100
2018-08-19T07:38:08.931Z,105
2018-08-19T07:39:08.880Z,105
2018-08-19T07:40:08.870Z,105
2018-08-19T07:41:08.878Z,105
2018-08-19T07:42:08.858Z,105
2018-08-19T07:43:08.326Z,105
2018-08-19T07:44:08.308Z,105
2018-08-19T07:45:08.820Z,105
2018-08-19T07:46:08.540Z,105
2018-08-19T07:47:08.272Z,105
2018-08-19T07:48:08.791Z,105
2018-08-19T07:49:08.778Z,110
2018-08-19T07:50:08.516Z,110
2018-08-19T07:51:08.759Z,110
2018-08-19T07:52:08.755Z,115
2018-08-19T07:53:08.735Z,110
2018-08-19T07:54:08.740Z,110
2018-08-19T07:55:08.719Z,110
2018-08-19T07:56:08.179Z,110
2018-08-19T07:57:08.716Z,115
2018-08-19T07:58:07.887Z,115
2018-08-19T07:59:08.415Z,115
2018-08-19T08:00:08.662Z,115
2018-08-19T08:01:08.395Z,115
2018-08-19T08:02:08.658Z,115
2018-08-19T08:03:08.642Z,115
2018-08-19T08:04:08.105Z,115
2018-08-19T08:05:08.877Z,120
2018-08-19T08:06:08.623Z,120
2018-08-19T08:07:08.065Z,120
2018-08-19T08:08:08.583Z,120
2018-08-19T08:09:08.574Z,125
2018-08-19T08:10:08.310Z,125
2018-08-19T08:11:08.957Z,125
2018-08-19T08:12:08.284Z,125
2018-08-19T08:13:08.074Z,130
2018-08-19T08:14:08.007Z,130
2018-08-19T08:15:08.248Z,135
2018-08-19T08:16:08.506Z,225
2018-08-19T08:17:07.974Z,185
2018-08-19T08:18:08.492Z,160
2018-08-19T08:19:08.572Z,150
2018-08-19T08:20:08.214Z,140
2018-08-19T08:21:08.291Z,140
2018-08-19T08:22:08.659Z,145
2018-08-19T08:23:08.443Z,140
2018-08-19T08:24:08.168Z,150
2018-08-19T08:25:08.417Z,155
2018-08-19T08:26:08.150Z,330
2018-08-19T08:27:08.402Z,155
2018-08-19T08:28:08.397Z,170
2018-08-19T08:29:08.013Z,305
2018-08-19T08:30:08.698Z,165
2018-08-19T08:31:08.357Z,160
2018-08-19T08:32:08.083Z,165
2018-08-19T08:33:08.637Z,150
2018-08-19T08:34:08.333Z,205
2018-08-19T08:35:07.800Z,200
2018-08-19T08:36:08.054Z,220
2018-08-19T08:37:08.786Z,250
2018-08-19T08:38:08.295Z,250
2018-08-19T08:39:08.044Z,215
2018-08-19T08:40:08.319Z,245
2018-08-19T08:41:08.030Z,245
2018-08-19T08:42:08.281Z,190
2018-08-19T08:43:08.521Z,335
2018-08-19T08:44:08.505Z,570
2018-08-19T08:45:07.984Z,250
2018-08-19T08:46:08.509Z,185
2018-08-19T08:47:08.214Z,210
2018-08-19T08:48:09.165Z,240
2018-08-19T08:49:08.199Z,200
2018-08-19T08:50:07.936Z,200
2018-08-19T08:51:07.923Z,240
2018-08-19T08:52:07.910Z,220
2018-08-19T08:53:08.203Z,235
2018-08-19T08:54:07.892Z,270
2018-08-19T08:55:07.878Z,255
2018-08-19T08:56:08.136Z,250
2018-08-19T08:57:08.141Z,235
2018-08-19T08:58:07.325Z,225
2018-08-19T08:59:07.848Z,235
2018-08-19T09:00:07.866Z,250
2018-08-19T09:01:07.824Z,255
2018-08-19T09:02:08.105Z,230
2018-08-19T09:03:07.644Z,240
2018-08-19T09:04:08.071Z,240
2018-08-19T09:05:07.818Z,240
2018-08-19T09:06:08.072Z,255
2018-08-19T09:07:07.513Z,270
2018-08-19T09:08:08.039Z,265
2018-08-19T09:09:07.765Z,240
2018-08-19T09:10:07.758Z,240
2018-08-19T09:11:07.756Z,265
2018-08-19T09:12:07.749Z,250
2018-08-19T09:13:08.016Z,250
2018-08-19T09:14:08.097Z,260
2018-08-19T09:15:07.987Z,275
2018-08-19T09:16:07.976Z,250
2018-08-19T09:17:07.983Z,250
2018-08-19T09:18:08.293Z,255
2018-08-19T09:19:07.691Z,235
2018-08-19T09:20:07.700Z,225
2018-08-19T09:21:08.233Z,245
2018-08-19T09:22:07.398Z,245
2018-08-19T09:23:08.264Z,260
2018-08-19T09:24:07.920Z,265
2018-08-19T09:25:07.379Z,280
2018-08-19T09:26:07.888Z,335
2018-08-19T09:27:07.906Z,325
2018-08-19T09:28:07.885Z,340
2018-08-19T09:29:07.877Z,330
2018-08-19T09:30:07.871Z,315
2018-08-19T09:31:07.336Z,295
2018-08-19T09:32:07.064Z,320
2018-08-19T09:33:07.668Z,330
2018-08-19T09:34:07.850Z,310
2018-08-19T09:35:07.297Z,310
2018-08-19T09:36:07.289Z,315
2018-08-19T09:37:07.284Z,315
2018-08-19T09:38:07.279Z,325
2018-08-19T09:39:07.604Z,305
2018-08-19T09:40:07.273Z,325
2018-08-19T09:41:07.252Z,295
2018-08-19T09:42:07.518Z,270
2018-08-19T09:43:07.500Z,260
2018-08-19T09:44:07.510Z,265
2018-08-19T09:45:07.748Z,250
2018-08-19T09:46:07.538Z,250
2018-08-19T09:47:07.483Z,245
2018-08-19T09:48:08.221Z,245
2018-08-19T09:49:07.209Z,255
2018-08-19T09:50:07.719Z,250
2018-08-19T09:51:07.979Z,270
2018-08-19T09:52:07.724Z,265
2018-08-19T09:53:07.966Z,255
2018-08-19T09:54:07.216Z,250
2018-08-19T09:55:07.966Z,250
2018-08-19T09:56:07.947Z,250
2018-08-19T09:57:07.138Z,245
2018-08-19T09:58:06.866Z,280
2018-08-19T09:59:07.485Z,335
2018-08-19T10:00:07.681Z,345
2018-08-19T10:01:07.925Z,425
2018-08-19T10:02:07.369Z,305
2018-08-19T10:03:07.685Z,300
2018-08-19T10:04:07.088Z,205
2018-08-19T10:05:07.648Z,210
2018-08-19T10:06:07.354Z,275
2018-08-19T10:07:07.355Z,275
2018-08-19T10:08:07.606Z,255
2018-08-19T10:09:07.588Z,230
2018-08-19T10:10:07.335Z,245
2018-08-19T10:11:07.296Z,290
2018-08-19T10:12:07.042Z,280
2018-08-19T10:13:07.579Z,265
2018-08-19T10:14:07.833Z,250
2018-08-19T10:15:07.023Z,240
2018-08-19T10:16:07.530Z,235
2018-08-19T10:17:07.622Z,220
2018-08-19T10:18:07.566Z,240
2018-08-19T10:19:06.982Z,250
2018-08-19T10:20:07.526Z,235
2018-08-19T10:21:07.228Z,250
2018-08-19T10:22:07.248Z,235
2018-08-19T10:23:07.474Z,245
2018-08-19T10:24:07.212Z,260
2018-08-19T10:25:07.745Z,255
2018-08-19T10:26:07.759Z,265
2018-08-19T10:27:07.475Z,325
2018-08-19T10:28:07.189Z,315
2018-08-19T10:29:06.903Z,335
2018-08-19T10:30:07.170Z,305
2018-08-19T10:31:07.490Z,280
2018-08-19T10:32:07.441Z,465
2018-08-19T10:33:07.152Z,370
2018-08-19T10:34:07.405Z,640
2018-08-19T10:35:06.861Z,500
2018-08-19T10:36:07.195Z,635
2018-08-19T10:37:07.385Z,600
2018-08-19T10:38:07.636Z,520
2018-08-19T10:39:07.396Z,1140
2018-08-19T10:40:07.099Z,325
2018-08-19T10:41:07.089Z,320
2018-08-19T10:42:07.227Z,355
2018-08-19T10:43:07.637Z,350
2018-08-19T10:44:06.830Z,500
2018-08-19T10:45:07.069Z,530
2018-08-19T10:46:07.400Z,825
2018-08-19T10:47:06.795Z,1140
2018-08-19T10:48:06.787Z,1545
2018-08-19T10:49:07.052Z,1530
2018-08-19T10:50:06.777Z,1545
2018-08-19T10:51:07.341Z,1510
2018-08-19T10:52:07.319Z,1435
2018-08-19T10:53:07.626Z,1545
2018-08-19T10:54:07.557Z,1575
2018-08-19T10:55:07.315Z,1615
2018-08-19T10:56:07.287Z,1625
2018-08-19T10:57:06.486Z,1625
2018-08-19T10:58:07.312Z,755
2018-08-19T10:59:07.009Z,1410
2018-08-19T11:00:07.103Z,1525
2018-08-19T11:01:07.012Z,1415
2018-08-19T11:02:07.284Z,1140
2018-08-19T11:03:07.020Z,1565
2018-08-19T11:04:06.735Z,1635
2018-08-19T11:05:06.747Z,835
2018-08-19T11:06:07.011Z,1630
2018-08-19T11:07:06.997Z,1645
2018-08-19T11:08:07.525Z,1710
2018-08-19T11:09:07.009Z,1695
2018-08-19T11:10:06.739Z,550
2018-08-19T11:11:06.739Z,955
2018-08-19T11:12:06.739Z,1455
2018-08-19T11:13:06.740Z,1345
2018-08-19T11:14:07.324Z,1060
2018-08-19T11:15:06.737Z,1230
2018-08-19T11:16:06.742Z,1700
2018-08-19T11:17:07.017Z,1705
2018-08-19T11:18:07.277Z,1555
2018-08-19T11:19:06.752Z,1710
2018-08-19T11:20:07.287Z,1670
2018-08-19T11:21:07.927Z,1585
2018-08-19T11:22:07.539Z,1565
2018-08-19T11:23:07.276Z,1605
2018-08-19T11:24:07.550Z,1670
2018-08-19T11:25:07.015Z,1685
2018-08-19T11:26:07.026Z,1705
2018-08-19T11:27:07.033Z,1790
2018-08-19T11:28:07.035Z,1870
2018-08-19T11:29:07.297Z,1850
2018-08-19T11:30:07.610Z,1745
2018-08-19T11:31:07.297Z,1675
2018-08-19T11:32:07.317Z,1640
2018-08-19T11:33:06.532Z,1630
2018-08-19T11:34:07.054Z,1635
2018-08-19T11:35:07.605Z,1575
2018-08-19T11:36:06.802Z,1560
2018-08-19T11:37:06.534Z,1545
2018-08-19T11:38:07.116Z,1635
2018-08-19T11:39:07.336Z,1660
2018-08-19T11:40:07.346Z,1690
2018-08-19T11:41:07.352Z,1630
2018-08-19T11:42:07.105Z,1575
2018-08-19T11:43:06.827Z,1530
2018-08-19T11:44:06.558Z,1600
2018-08-19T11:45:07.390Z,1700
2018-08-19T11:46:07.111Z,1750
2018-08-19T11:47:07.376Z,1765
2018-08-19T11:48:07.139Z,1805
2018-08-19T11:49:07.115Z,1835
2018-08-19T11:50:07.379Z,1815
2018-08-19T11:51:07.392Z,1800
2018-08-19T11:52:07.131Z,1760
2018-08-19T11:53:07.440Z,1740
2018-08-19T11:54:07.664Z,1730
2018-08-19T11:55:06.938Z,1730
2018-08-19T11:56:07.451Z,1630
2018-08-19T11:57:07.448Z,1495
2018-08-19T11:58:07.188Z,1490
2018-08-19T11:59:06.900Z,1590
2018-08-19T12:00:07.448Z,1500
2018-08-19T12:01:07.464Z,1665
2018-08-19T12:02:08.019Z,1695
2018-08-19T12:03:06.917Z,1595
2018-08-19T12:04:07.201Z,1565
2018-08-19T12:05:07.272Z,1615
2018-08-19T12:06:07.496Z,1625
2018-08-19T12:07:07.211Z,1625
2018-08-19T12:08:07.230Z,1605
2018-08-19T12:09:07.486Z,1675
2018-08-19T12:10:07.261Z,1605
2018-08-19T12:11:06.958Z,1620
2018-08-19T12:12:06.974Z,1575
2018-08-19T12:13:07.236Z,1595
2018-08-19T12:14:07.780Z,1580
2018-08-19T12:15:07.245Z,1615
2018-08-19T12:16:07.517Z,1610
2018-08-19T12:17:07.531Z,1625
2018-08-19T12:18:07.528Z,1675
2018-08-19T12:19:07.259Z,1665
2018-08-19T12:20:07.326Z,1645
2018-08-19T12:21:07.537Z,1560
2018-08-19T12:22:07.549Z,1400
2018-08-19T12:23:07.280Z,1330
2018-08-19T12:24:07.295Z,1325
2018-08-19T12:25:07.559Z,1390
2018-08-19T12:26:07.556Z,1405
2018-08-19T12:27:07.309Z,1430
2018-08-19T12:28:07.565Z,1410
2018-08-19T12:29:07.058Z,1435
2018-08-19T12:30:07.321Z,1465
2018-08-19T12:31:07.599Z,1500
2018-08-19T12:32:07.369Z,1515
2018-08-19T12:33:07.348Z,1560
2018-08-19T12:34:07.346Z,1545
2018-08-19T12:35:07.353Z,1525
2018-08-19T12:36:07.351Z,1510
2018-08-19T12:37:07.584Z,1475
2018-08-19T12:38:07.095Z,1460
2018-08-19T12:39:07.362Z,1470
2018-08-19T12:40:07.633Z,1485
2018-08-19T12:41:07.381Z,1480
2018-08-19T12:42:07.386Z,1475
2018-08-19T12:43:07.389Z,1420
2018-08-19T12:44:07.645Z,1490
2018-08-19T12:45:07.127Z,1525
2018-08-19T12:46:07.656Z,1600
2018-08-19T12:47:07.404Z,1650
2018-08-19T12:48:07.663Z,1595
2018-08-19T12:49:07.620Z,1490
2018-08-19T12:50:07.490Z,1425
2018-08-19T12:51:06.889Z,1390
2018-08-19T12:52:07.432Z,1445
2018-08-19T12:53:06.893Z,1505
2018-08-19T12:54:07.434Z,1545
2018-08-19T12:55:07.720Z,1565
2018-08-19T12:56:07.637Z,1530
2018-08-19T12:57:07.453Z,1510
2018-08-19T12:58:07.995Z,1505
2018-08-19T12:59:07.998Z,1545
2018-08-19T13:00:06.938Z,1590
2018-08-19T13:01:07.733Z,1635
2018-08-19T13:02:07.209Z,1670
2018-08-19T13:03:07.743Z,1620
2018-08-19T13:04:07.749Z,1540
2018-08-19T13:05:07.751Z,1525
2018-08-19T13:06:08.034Z,1505
2018-08-19T13:07:07.498Z,1505
2018-08-19T13:08:08.057Z,1485
2018-08-19T13:09:07.242Z,1460
2018-08-19T13:10:07.515Z,1460
2018-08-19T13:11:07.788Z,1555
2018-08-19T13:12:07.523Z,1675
2018-08-19T13:13:07.859Z,1730
2018-08-19T13:14:07.279Z,1660
2018-08-19T13:15:07.539Z,1530
2018-08-19T13:16:07.278Z,1450
2018-08-19T13:17:07.547Z,1435
2018-08-19T13:18:07.830Z,1465
2018-08-19T13:19:07.815Z,1425
2018-08-19T13:20:07.838Z,1425
2018-08-19T13:21:07.567Z,1465
2018-08-19T13:22:07.306Z,1530
2018-08-19T13:23:07.718Z,1575
2018-08-19T13:24:07.853Z,1590
2018-08-19T13:25:07.591Z,1620
2018-08-19T13:26:07.601Z,1565
2018-08-19T13:27:08.121Z,1430
2018-08-19T13:28:07.608Z,1355
2018-08-19T13:29:07.598Z,1360
2018-08-19T13:30:07.612Z,1375
2018-08-19T13:31:08.140Z,1400
2018-08-19T13:32:07.365Z,1425
2018-08-19T13:33:07.095Z,1445
2018-08-19T13:34:07.896Z,1440
2018-08-19T13:35:08.155Z,1420
2018-08-19T13:36:07.892Z,1400
2018-08-19T13:37:07.374Z,1410
2018-08-19T13:38:07.701Z,1430
2018-08-19T13:39:07.648Z,1390
2018-08-19T13:40:07.654Z,1325
2018-08-19T13:41:08.188Z,1290
2018-08-19T13:42:07.658Z,1315
2018-08-19T13:43:07.669Z,1330
2018-08-19T13:44:07.929Z,1360
2018-08-19T13:45:07.671Z,1390
2018-08-19T13:46:07.680Z,1390
2018-08-19T13:47:08.327Z,1355
2018-08-19T13:48:07.952Z,1325
2018-08-19T13:49:07.712Z,1335
2018-08-19T13:50:07.954Z,1340
2018-08-19T13:51:07.695Z,1305
2018-08-19T13:52:07.443Z,1255
2018-08-19T13:53:07.970Z,1280
2018-08-19T13:54:07.453Z,1300
2018-08-19T13:55:07.451Z,1285
2018-08-19T13:56:07.714Z,1280
2018-08-19T13:57:07.563Z,1235
2018-08-19T13:58:07.470Z,1210
2018-08-19T13:59:08.257Z,1190
2018-08-19T14:00:08.019Z,1160
2018-08-19T14:01:07.754Z,1140
2018-08-19T14:02:07.737Z,1200
2018-08-19T14:03:08.011Z,1285
2018-08-19T14:04:07.501Z,1335